Terminal Aerodrome Forecast
Issued by NWS

Current Version | Previous Version | Text Only | Print | Product List | Glossary On
Versions: 1 2 3 4 5 6 7 8 9 10 11 12 13 14 15 16 17 18 19 20 21 22 23 24 25 26 27 28 29
000
FTUS45 KGJT 282322
TAFDRO
TAF
KDRO 282322Z 2900/2924 29007KT P6SM VCTS BKN060CB OVC080
      TEMPO 2900/2903 VRB15G25KT -TSRA SCT060 BKN080CB
     FM290300 04007KT P6SM -SHRA OVC070
     FM290600 02004KT P6SM VCSH SCT070 BKN090
     FM291200 VRB03KT P6SM SCT090 BKN120
     FM291800 32006KT P6SM BKN100
     FM292000 28006KT P6SM VCTS SCT080CB BKN100=

USA.gov is the U.S. government's official web portal to all federal, state and local government web resources and services.